Finley, ND (58230)

5:42 PM CDT on October 22, 2014 (GMT -0500)
Grand Forks Air Force Base | Change Station
CLOSE
Current Station
Airport
Location: Grand Forks AFB,
Elevation: 278 m
Nearby Weather Stations

Elev 278 m 47.96 °N, 97.40 °W | Updated 6 minutes ago

Rain
Rain
14 °C
Feels Like 14 °C
N
13
Wind Variable Wind from SW

Today
High -- | Low -- °C
--% Chance of Precip.
Yesterday
High -- | Low -- °C
Precip. -- mm
7:59 AM 6:29 PM
Waning Crescent, 1% visible
Pressure 1009 hPa
Visibility 16.1 kilometers
Clouds Scattered Clouds 2133 m
Overcast 2590 m
Dew Point 13 °C
Humidity 94%
Rainfall 0.0 mm
Snow Depth Not available.
UV 0 out of 12
Pollen 1.90 out of 12
Air Quality Not available.
Flu Activity Local Activity
SPECI KRDR 222236Z AUTO 22007KT 10SM -RA SCT070 OVC085 14/13 A2981 RMK AO2

More Conditions Fewer Conditions

Pressure 1009 hPa
Visibility 16.1 kilometers
Clouds Scattered Clouds 2133 m
Overcast 2590 m
Dew Point 13 °C
Humidity 94%
Rainfall 0.0 mm
Snow Depth Not available.
UV 0 out of 12
Pollen 1.90 out of 12
Air Quality Not available.
Flu Activity Local Activity
SPECI KRDR 222236Z AUTO 22007KT 10SM -RA SCT070 OVC085 14/13 A2981 RMK AO2

More Conditions Fewer Conditions

10-Day Weather Forecast

Almanac

Astronomy

Oct. 22, 2014 Rise Set
Actual Time 7:59 AM CDT 6:29 PM CDT
Civil Twilight 7:28 AM CDT 7:01 PM CDT
Nautical Twilight 6:52 AM CDT 7:37 PM CDT
Astronomical Twilight 6:16 AM CDT 8:12 PM CDT
Moon 6:37 AM CDT 6:00 PM CDT
Length of Visible Light 11h 32m
Length of Day
10h 30m
Tomorrow will be 3m 15s shorter.
Waning Crescent, 1% of the Moon is Illuminated
Today
Waning Crescent
Oct 23
New
Oct 30
First Quarter
Nov 6
Full
Nov 14
Last Quarter

Today's Extremes

State Highs State Lows

Community

WunderPhotos

Upload Photos

1,764,065 photos uploaded!

WunderBlogs® & News

Nearby

Snow Depth

Station Depth Elevation
No new snow has been reported.

Earthquake Activity

City Distance Mag. Time & Date
No recent earthquake activity has been reported nearby.
Minimum magnitude displayed is 2.5.

Coastal Water Temperatures

Place Temperature
No Stations Reporting

Nearby Weather Stations